CYKFCYVV

Guest
Details From CYKF - WATERLOO
To CYVV - WIARTON
Flight Number -
Tags generated
Created
Modified
Stats Distance 83 nm / 154 km
Max Altitude 6,700 ft / 2,042 m
Waypoints 3
Social Downloads 0
Likes 0
Share VATSIM

Download

Looking for another format? Having issues loading an existing format? Contact us
Advertisement - Login to hide

Notes

Basic altitude profile: - Ascent Rate: 650ft/min - Ascent Speed: 70kts - Cruise Altitude: 4500ft - Cruise Speed: 102kts - Descent Rate: 600ft/min - Descent Speed: 65kts Options: - Use NATs: yes - Use PACOTS: yes - Use low airways: yes - Use high airways: no

Route

CYKF ARTHR CYVV

ID Type Via Altitude Latitude Longitude Leg Dist Tot Dist Heading (true) Name
O CYKF APT - 0 ft / 0 m 43.46008˚ -80.38261˚ - 0 nm - WATERLOO
ARTHR FIX - 6,700 ft / 2,042 m 43.74806˚ -80.55472˚ 18 nm 18 nm 337° / 337° -
O CYVV APT - 0 ft / 0 m 44.74313˚ -81.10819˚ 64 nm 83 nm 338° / 338° WIARTON

Altitude Profile

Advertisement - Login to hide

CYKF

Details ICAO CYKF (YKF)
Name WATERLOO
Region Canada
Timezone America/Toronto (UTC-5.0)
Stats Elevation 1,054 ft / 321 m (AMSL)
Location 43.460084° -80.382613°
Runways 2
Magnetic Variation 9.733° W

METAR

CYKF 131832Z AUTO 33004KT 230V010 9SM OVC022 M09/M14 A2963 RMK SLP056

Decode

TAF

TAF TAF CYKF 131338Z 1314/1402 28006KT P6SM FEW030 FM131700 27008KT P6SM BKN030 TEMPO 1317/1320 P6SM -SHSN BKN020 FM132000 25005KT P6SM BKN025 OVC070 TEMPO 1320/1322 4SM -SN BKN020 OVC050 FM132200 VRB03KT 6SM -SN SCT020 OVC040 TEMPO 1322/1402 2SM -SN OVC020 RMK FCST BASED ON AUTO OBS. NXT FCST BY 132000Z

Decode

Departure Runways

ID Width Length Bearing (true) Bearing (mag) Surface Threshold Offset Overrun Length
08 150 ft / 46 m 6,988 ft / 2,130 m 64.02° 73.75° Asphalt 0 ft / 0 m 0 ft / 0 m
14 150 ft / 46 m 4,055 ft / 1,236 m 128.69° 138.42° Asphalt 0 ft / 0 m 0 ft / 0 m
26 150 ft / 46 m 6,988 ft / 2,130 m 244.03° 253.76° Asphalt 0 ft / 0 m 0 ft / 0 m
32 150 ft / 46 m 4,055 ft / 1,236 m 308.69° 318.42° Asphalt 0 ft / 0 m 0 ft / 0 m

CYVV

Details ICAO CYVV (YVV)
Name WIARTON
Region Canada
Timezone America/Toronto (UTC-5.0)
Stats Elevation 729 ft / 222 m (AMSL)
Location 44.743125° -81.108194°
Runways 2
Magnetic Variation 9.548° W

METAR

CYVV 131800Z CCA 03003KT 320V090 15SM FEW015 FEW100 FEW300 M09/M15 A2966 RMK SC1AC1CI1 CI TR SLP062

Decode

TAF

TAF CYVV 131340Z 1314/1324 32005KT 6SM -SN BKN025 TEMPO 1314/1317 2SM -SN OVC020 FM131700 31006KT P6SM BKN030 TEMPO 1317/1324 6SM -SN BECMG 1319/1321 03006KT RMK NXT FCST BY 132000Z

Decode

Destination Runways

ID Width Length Bearing (true) Bearing (mag) Surface Threshold Offset Overrun Length
05 150 ft / 46 m 5,026 ft / 1,532 m 43.44° 52.99° Asphalt 0 ft / 0 m 0 ft / 0 m
11 100 ft / 30 m 3,066 ft / 935 m 99.51° 109.06° Gravel 0 ft / 0 m 0 ft / 0 m
23 150 ft / 46 m 5,026 ft / 1,532 m 223.45° 233.00° Asphalt 0 ft / 0 m 0 ft / 0 m
29 100 ft / 30 m 3,066 ft / 935 m 279.52° 289.07° Gravel 0 ft / 0 m 0 ft / 0 m

Popular Alternatives